sensor_id;sensor_type;location;lat;lon;timestamp;pressure;altitude;pressure_sealevel;temperature;humidity
19096;BME280;9680;52.520;13.332;2023-02-28T00:01:23;102878.50;;;2.69;62.95
19096;BME280;9680;52.520;13.332;2023-02-28T00:03:51;102884.47;;;2.68;63.14
19096;BME280;9680;52.520;13.332;2023-02-28T00:06:18;102887.13;;;2.69;63.10
19096;BME280;9680;52.520;13.332;2023-02-28T00:08:45;102881.06;;;2.69;63.06
19096;BME280;9680;52.520;13.332;2023-02-28T00:11:13;102891.53;;;2.73;63.17
19096;BME280;9680;52.520;13.332;2023-02-28T00:13:43;102889.78;;;2.72;63.08
19096;BME280;9680;52.520;13.332;2023-02-28T00:16:13;102889.72;;;2.71;63.11
19096;BME280;9680;52.520;13.332;2023-02-28T00:18:41;102883.81;;;2.73;63.08
19096;BME280;9680;52.520;13.332;2023-02-28T00:21:08;102884.56;;;2.71;63.00
19096;BME280;9680;52.520;13.332;2023-02-28T00:23:36;102888.81;;;2.69;63.16
19096;BME280;9680;52.520;13.332;2023-02-28T00:26:04;102883.66;;;2.69;63.31
19096;BME280;9680;52.520;13.332;2023-02-28T00:28:31;102884.63;;;2.72;63.38
19096;BME280;9680;52.520;13.332;2023-02-28T00:30:59;102881.25;;;2.75;63.43
19096;BME280;9680;52.520;13.332;2023-02-28T00:33:28;102891.72;;;2.81;63.18
19096;BME280;9680;52.520;13.332;2023-02-28T00:36:03;102892.63;;;2.82;63.19
19096;BME280;9680;52.520;13.332;2023-02-28T00:38:30;102891.72;;;2.81;63.01
19096;BME280;9680;52.520;13.332;2023-02-28T00:40:57;102891.72;;;2.81;63.11
19096;BME280;9680;52.520;13.332;2023-02-28T00:43:30;102889.25;;;2.84;63.07
19096;BME280;9680;52.520;13.332;2023-02-28T00:45:57;102891.81;;;2.84;62.99
19096;BME280;9680;52.520;13.332;2023-02-28T00:48:25;102891.06;;;2.88;63.19
19096;BME280;9680;52.520;13.332;2023-02-28T00:50:52;102886.94;;;2.94;63.11
19096;BME280;9680;52.520;13.332;2023-02-28T00:53:20;102894.84;;;3.00;62.97
19096;BME280;9680;52.520;13.332;2023-02-28T00:55:48;102897.50;;;3.03;62.87
19096;BME280;9680;52.520;13.332;2023-02-28T00:58:15;102890.63;;;3.03;62.84
19096;BME280;9680;52.520;13.332;2023-02-28T01:00:42;102892.38;;;3.03;62.81
19096;BME280;9680;52.520;13.332;2023-02-28T01:03:10;102893.97;;;2.99;62.82
19096;BME280;9680;52.520;13.332;2023-02-28T01:05:38;102894.72;;;2.97;62.79
19096;BME280;9680;52.520;13.332;2023-02-28T01:08:06;102890.41;;;2.96;62.81
19096;BME280;9680;52.520;13.332;2023-02-28T01:10:33;102891.25;;;2.95;62.76
19096;BME280;9680;52.520;13.332;2023-02-28T01:13:02;102891.16;;;2.91;62.91
19096;BME280;9680;52.520;13.332;2023-02-28T01:15:29;102891.06;;;2.88;62.98
19096;BME280;9680;52.520;13.332;2023-02-28T01:17:57;102895.44;;;2.91;63.10
19096;BME280;9680;52.520;13.332;2023-02-28T01:20:24;102892.06;;;2.94;63.06
19096;BME280;9680;52.520;13.332;2023-02-28T01:22:52;102891.31;;;2.96;62.93
19096;BME280;9680;52.520;13.332;2023-02-28T01:25:19;102889.50;;;2.94;63.01
19096;BME280;9680;52.520;13.332;2023-02-28T01:27:46;102876.44;;;2.87;62.77
19096;BME280;9680;52.520;13.332;2023-02-28T01:30:13;102879.78;;;2.83;62.87
19096;BME280;9680;52.520;13.332;2023-02-28T01:32:39;102877.94;;;2.79;62.96
19096;BME280;9680;52.520;13.332;2023-02-28T01:35:07;102876.94;;;2.74;62.85
19096;BME280;9680;52.520;13.332;2023-02-28T01:37:33;102875.00;;;2.67;63.07
19096;BME280;9680;52.520;13.332;2023-02-28T01:40:02;102873.19;;;2.62;62.94
19096;BME280;9680;52.520;13.332;2023-02-28T01:42:29;102873.91;;;2.58;63.15
19096;BME280;9680;52.520;13.332;2023-02-28T01:45:03;102874.75;;;2.57;63.35
19096;BME280;9680;52.520;13.332;2023-02-28T01:47:51;102872.19;;;2.57;63.43
19096;BME280;9680;52.520;13.332;2023-02-28T01:50:21;102865.31;;;2.58;63.33
19096;BME280;9680;52.520;13.332;2023-02-28T01:52:50;102870.53;;;2.61;63.34
19096;BME280;9680;52.520;13.332;2023-02-28T01:55:22;102870.53;;;2.59;63.32
19096;BME280;9680;52.520;13.332;2023-02-28T01:57:58;102873.09;;;2.59;63.36
19096;BME280;9680;52.520;13.332;2023-02-28T02:00:28;102871.38;;;2.60;63.42
19096;BME280;9680;52.520;13.332;2023-02-28T02:02:58;102868.03;;;2.62;63.32
19096;BME280;9680;52.520;13.332;2023-02-28T02:05:27;102873.13;;;2.61;63.23
19096;BME280;9680;52.520;13.332;2023-02-28T02:07:58;102873.03;;;2.58;63.24
19096;BME280;9680;52.520;13.332;2023-02-28T02:10:33;102878.97;;;2.55;63.40
19096;BME280;9680;52.520;13.332;2023-02-28T02:13:34;102876.22;;;2.49;63.43
19096;BME280;9680;52.520;13.332;2023-02-28T02:16:15;102874.28;;;2.42;63.28
19096;BME280;9680;52.520;13.332;2023-02-28T02:18:47;102879.03;;;2.29;63.46
19096;BME280;9680;52.520;13.332;2023-02-28T02:21:48;102873.53;;;2.17;63.67
19096;BME280;9680;52.520;13.332;2023-02-28T02:24:53;102870.31;;;1.97;63.95
19096;BME280;9680;52.520;13.332;2023-02-28T02:27:35;102873.31;;;1.83;64.19
19096;BME280;9680;52.520;13.332;2023-02-28T02:30:32;102871.16;;;1.70;64.47
19096;BME280;9680;52.520;13.332;2023-02-28T02:33:09;102865.66;;;1.59;64.81
19096;BME280;9680;52.520;13.332;2023-02-28T02:35:47;102867.81;;;1.47;65.08
19096;BME280;9680;52.520;13.332;2023-02-28T02:38:27;102870.91;;;1.36;65.50
19096;BME280;9680;52.520;13.332;2023-02-28T02:40:59;102875.00;;;1.31;65.85
19096;BME280;9680;52.520;13.332;2023-02-28T02:43:34;102869.66;;;1.25;66.10
19096;BME280;9680;52.520;13.332;2023-02-28T02:46:06;102874.59;;;1.19;66.34
19096;BME280;9680;52.520;13.332;2023-02-28T02:48:39;102870.09;;;1.13;66.62
19096;BME280;9680;52.520;13.332;2023-02-28T02:51:13;102875.19;;;1.11;66.81
19096;BME280;9680;52.520;13.332;2023-02-28T02:53:44;102880.22;;;1.08;67.12
19096;BME280;9680;52.520;13.332;2023-02-28T02:56:15;102871.50;;;1.05;67.18
19096;BME280;9680;52.520;13.332;2023-02-28T02:58:47;102870.47;;;0.99;67.23
19096;BME280;9680;52.520;13.332;2023-02-28T03:01:18;102879.69;;;0.94;67.46
19096;BME280;9680;52.520;13.332;2023-02-28T03:03:56;102877.06;;;0.93;67.64
19096;BME280;9680;52.520;13.332;2023-02-28T03:06:26;102879.59;;;0.91;67.86
19096;BME280;9680;52.520;13.332;2023-02-28T03:08:53;102875.22;;;0.89;67.92
19096;BME280;9680;52.520;13.332;2023-02-28T03:11:22;102876.84;;;0.86;68.20
19096;BME280;9680;52.520;13.332;2023-02-28T03:14:02;102876.81;;;0.85;68.17
19096;BME280;9680;52.520;13.332;2023-02-28T03:16:44;102880.13;;;0.82;68.25
19096;BME280;9680;52.520;13.332;2023-02-28T03:19:26;102881.72;;;0.79;68.33
19096;BME280;9680;52.520;13.332;2023-02-28T03:22:12;102885.91;;;0.77;68.50
19096;BME280;9680;52.520;13.332;2023-02-28T03:24:43;102891.75;;;0.72;68.70
19096;BME280;9680;52.520;13.332;2023-02-28T03:27:17;102887.38;;;0.70;68.76
19096;BME280;9680;52.520;13.332;2023-02-28T03:29:51;102895.03;;;0.68;68.77
19096;BME280;9680;52.520;13.332;2023-02-28T03:32:24;102891.44;;;0.65;68.76
19096;BME280;9680;52.520;13.332;2023-02-28T03:34:57;102892.97;;;0.60;69.23
19096;BME280;9680;52.520;13.332;2023-02-28T03:37:28;102896.22;;;0.55;69.23
19096;BME280;9680;52.520;13.332;2023-02-28T03:39:58;102904.66;;;0.53;69.33
19096;BME280;9680;52.520;13.332;2023-02-28T03:42:29;102893.47;;;0.51;69.64
19096;BME280;9680;52.520;13.332;2023-02-28T03:45:00;102897.66;;;0.49;69.72
19096;BME280;9680;52.520;13.332;2023-02-28T03:47:31;102901.88;;;0.47;69.82
19096;BME280;9680;52.520;13.332;2023-02-28T03:50:04;102894.94;;;0.44;69.93
19096;BME280;9680;52.520;13.332;2023-02-28T03:52:36;102901.72;;;0.42;70.08
19096;BME280;9680;52.520;13.332;2023-02-28T03:55:07;102899.06;;;0.40;69.97
19096;BME280;9680;52.520;13.332;2023-02-28T03:57:41;102894.75;;;0.39;70.21
19096;BME280;9680;52.520;13.332;2023-02-28T04:00:13;102896.34;;;0.36;70.53
19096;BME280;9680;52.520;13.332;2023-02-28T04:02:41;102901.47;;;0.36;70.63
19096;BME280;9680;52.520;13.332;2023-02-28T04:05:08;102900.53;;;0.34;70.61
19096;BME280;9680;52.520;13.332;2023-02-28T04:07:36;102902.13;;;0.32;70.67
19096;BME280;9680;52.520;13.332;2023-02-28T04:10:04;102903.66;;;0.26;70.79
19096;BME280;9680;52.520;13.332;2023-02-28T04:12:31;102896.59;;;0.21;70.83
19096;BME280;9680;52.520;13.332;2023-02-28T04:14:57;102898.13;;;0.16;70.89
19096;BME280;9680;52.520;13.332;2023-02-28T04:17:24;102900.56;;;0.12;71.09
19096;BME280;9680;52.520;13.332;2023-02-28T04:19:51;102898.00;;;0.12;71.63
19096;BME280;9680;52.520;13.332;2023-02-28T04:22:19;102901.50;;;0.14;71.56
19096;BME280;9680;52.520;13.332;2023-02-28T04:24:47;102907.47;;;0.15;71.65
19096;BME280;9680;52.520;13.332;2023-02-28T04:27:14;102905.81;;;0.16;71.79
19096;BME280;9680;52.520;13.332;2023-02-28T04:29:41;102902.34;;;0.15;71.96
19096;BME280;9680;52.520;13.332;2023-02-28T04:32:09;102904.88;;;0.13;71.83
19096;BME280;9680;52.520;13.332;2023-02-28T04:34:36;102911.66;;;0.13;72.03
19096;BME280;9680;52.520;13.332;2023-02-28T04:37:03;102905.56;;;0.09;72.15
19096;BME280;9680;52.520;13.332;2023-02-28T04:39:34;102911.50;;;0.08;72.16
19096;BME280;9680;52.520;13.332;2023-02-28T04:42:03;102908.81;;;0.05;72.16
19096;BME280;9680;52.520;13.332;2023-02-28T04:44:30;102906.94;;;0.01;72.22
19096;BME280;9680;52.520;13.332;2023-02-28T04:46:56;102908.53;;;-0.01;72.30
19096;BME280;9680;52.520;13.332;2023-02-28T04:49:23;102903.28;;;-0.04;72.42
19096;BME280;9680;52.520;13.332;2023-02-28T04:51:50;102913.38;;;-0.09;72.45
19096;BME280;9680;52.520;13.332;2023-02-28T04:54:18;102908.13;;;-0.12;72.85
19096;BME280;9680;52.520;13.332;2023-02-28T04:56:45;102907.91;;;-0.17;72.74
19096;BME280;9680;52.520;13.332;2023-02-28T04:59:15;102913.81;;;-0.19;72.96
19096;BME280;9680;52.520;13.332;2023-02-28T05:01:45;102918.81;;;-0.22;73.18
19096;BME280;9680;52.520;13.332;2023-02-28T05:04:12;102918.72;;;-0.24;73.55
19096;BME280;9680;52.520;13.332;2023-02-28T05:06:39;102914.53;;;-0.22;73.58
19096;BME280;9680;52.520;13.332;2023-02-28T05:09:06;102923.84;;;-0.24;73.28
19096;BME280;9680;52.520;13.332;2023-02-28T05:11:33;102925.59;;;-0.23;73.96
19096;BME280;9680;52.520;13.332;2023-02-28T05:14:01;102924.88;;;-0.20;73.82
19096;BME280;9680;52.520;13.332;2023-02-28T05:16:30;102925.81;;;-0.18;73.76
19096;BME280;9680;52.520;13.332;2023-02-28T05:18:57;102929.19;;;-0.19;73.78
19096;BME280;9680;52.520;13.332;2023-02-28T05:21:27;102925.00;;;-0.17;74.03
19096;BME280;9680;52.520;13.332;2023-02-28T05:23:55;102925.84;;;-0.17;74.15
19096;BME280;9680;52.520;13.332;2023-02-28T05:26:23;102931.88;;;-0.16;74.27
19096;BME280;9680;52.520;13.332;2023-02-28T05:28:50;102933.53;;;-0.17;74.28
19096;BME280;9680;52.520;13.332;2023-02-28T05:31:16;102935.28;;;-0.16;74.25
19096;BME280;9680;52.520;13.332;2023-02-28T05:33:47;102939.56;;;-0.16;74.22
19096;BME280;9680;52.520;13.332;2023-02-28T05:36:14;102935.25;;;-0.17;74.39
19096;BME280;9680;52.520;13.332;2023-02-28T05:38:41;102933.50;;;-0.18;74.53
19096;BME280;9680;52.520;13.332;2023-02-28T05:41:08;102942.03;;;-0.18;74.44
19096;BME280;9680;52.520;13.332;2023-02-28T05:43:36;102940.22;;;-0.20;74.38
19096;BME280;9680;52.520;13.332;2023-02-28T05:46:04;102943.59;;;-0.21;74.52
19096;BME280;9680;52.520;13.332;2023-02-28T05:48:31;102940.16;;;-0.22;74.52
19096;BME280;9680;52.520;13.332;2023-02-28T05:51:00;102950.47;;;-0.20;74.54
19096;BME280;9680;52.520;13.332;2023-02-28T05:53:28;102951.22;;;-0.23;74.44
19096;BME280;9680;52.520;13.332;2023-02-28T05:55:55;102951.97;;;-0.25;74.63
19096;BME280;9680;52.520;13.332;2023-02-28T05:58:22;102951.16;;;-0.24;74.78
19096;BME280;9680;52.520;13.332;2023-02-28T06:00:51;102945.22;;;-0.23;74.70
19096;BME280;9680;52.520;13.332;2023-02-28T06:03:18;102948.53;;;-0.26;74.54
19096;BME280;9680;52.520;13.332;2023-02-28T06:05:44;102945.84;;;-0.29;74.41
19096;BME280;9680;52.520;13.332;2023-02-28T06:08:12;102952.72;;;-0.28;74.57
19096;BME280;9680;52.520;13.332;2023-02-28T06:10:39;102950.91;;;-0.31;74.62
19096;BME280;9680;52.520;13.332;2023-02-28T06:13:06;102956.03;;;-0.31;74.43
19096;BME280;9680;52.520;13.332;2023-02-28T06:15:33;102956.88;;;-0.30;74.42
19096;BME280;9680;52.520;13.332;2023-02-28T06:17:59;102957.78;;;-0.30;74.67
19096;BME280;9680;52.520;13.332;2023-02-28T06:20:27;102956.16;;;-0.27;74.65
19096;BME280;9680;52.520;13.332;2023-02-28T06:22:55;102962.22;;;-0.25;74.70
19096;BME280;9680;52.520;13.332;2023-02-28T06:25:25;102958.91;;;-0.23;74.76
19096;BME280;9680;52.520;13.332;2023-02-28T06:27:52;102960.66;;;-0.22;74.63
19096;BME280;9680;52.520;13.332;2023-02-28T06:30:19;102970.16;;;-0.19;74.69
19096;BME280;9680;52.520;13.332;2023-02-28T06:32:49;102965.16;;;-0.16;74.72
19096;BME280;9680;52.520;13.332;2023-02-28T06:35:16;102977.22;;;-0.13;74.63
19096;BME280;9680;52.520;13.332;2023-02-28T06:37:42;102979.88;;;-0.12;74.67
19096;BME280;9680;52.520;13.332;2023-02-28T06:40:10;102974.78;;;-0.10;74.76
19096;BME280;9680;52.520;13.332;2023-02-28T06:42:39;102983.53;;;-0.05;74.92
19096;BME280;9680;52.520;13.332;2023-02-28T06:45:07;102985.41;;;-0.01;74.71
19096;BME280;9680;52.520;13.332;2023-02-28T06:47:35;102983.88;;;0.03;74.53
19096;BME280;9680;52.520;13.332;2023-02-28T06:50:03;102990.03;;;0.06;74.50
19096;BME280;9680;52.520;13.332;2023-02-28T06:52:30;102985.97;;;0.11;74.51
19096;BME280;9680;52.520;13.332;2023-02-28T06:54:57;102989.50;;;0.15;74.61
19096;BME280;9680;52.520;13.332;2023-02-28T06:57:27;102989.72;;;0.20;74.44
19096;BME280;9680;52.520;13.332;2023-02-28T06:59:58;102995.00;;;0.24;74.54
19096;BME280;9680;52.520;13.332;2023-02-28T07:02:25;102990.91;;;0.28;74.61
19096;BME280;9680;52.520;13.332;2023-02-28T07:04:52;102995.41;;;0.34;74.57
19096;BME280;9680;52.520;13.332;2023-02-28T07:07:18;102987.16;;;0.41;74.49
19096;BME280;9680;52.520;13.332;2023-02-28T07:09:45;102993.47;;;0.49;74.42
19096;BME280;9680;52.520;13.332;2023-02-28T07:12:12;102994.56;;;0.56;74.58
19096;BME280;9680;52.520;13.332;2023-02-28T07:14:39;102999.13;;;0.63;74.38
19096;BME280;9680;52.520;13.332;2023-02-28T07:17:08;102996.00;;;0.70;74.28
19096;BME280;9680;52.520;13.332;2023-02-28T07:19:37;102986.81;;;0.76;74.21
19096;BME280;9680;52.520;13.332;2023-02-28T07:22:04;102993.16;;;0.85;74.18
19096;BME280;9680;52.520;13.332;2023-02-28T07:24:30;102993.47;;;0.93;74.19
19096;BME280;9680;52.520;13.332;2023-02-28T07:26:57;102990.41;;;1.04;74.09
19096;BME280;9680;52.520;13.332;2023-02-28T07:29:24;102995.84;;;1.11;73.99
19096;BME280;9680;52.520;13.332;2023-02-28T07:31:54;102996.19;;;1.21;73.75
19096;BME280;9680;52.520;13.332;2023-02-28T07:34:22;102993.03;;;1.28;73.66
19096;BME280;9680;52.520;13.332;2023-02-28T07:36:51;102996.75;;;1.36;73.33
19096;BME280;9680;52.520;13.332;2023-02-28T07:39:22;102997.97;;;1.46;72.82
19096;BME280;9680;52.520;13.332;2023-02-28T07:41:49;103000.81;;;1.54;72.52
19096;BME280;9680;52.520;13.332;2023-02-28T07:44:15;103001.84;;;1.59;72.14
19096;BME280;9680;52.520;13.332;2023-02-28T07:46:42;102995.31;;;1.67;71.65
19096;BME280;9680;52.520;13.332;2023-02-28T07:49:09;102995.56;;;1.75;70.42
19096;BME280;9680;52.520;13.332;2023-02-28T07:51:37;102991.66;;;1.86;69.42
19096;BME280;9680;52.520;13.332;2023-02-28T07:54:04;102993.69;;;1.95;67.96
19096;BME280;9680;52.520;13.332;2023-02-28T07:56:31;102999.97;;;2.03;67.25
19096;BME280;9680;52.520;13.332;2023-02-28T07:58:58;102995.13;;;2.13;66.27
19096;BME280;9680;52.520;13.332;2023-02-28T08:01:25;102994.56;;;2.22;65.32
19096;BME280;9680;52.520;13.332;2023-02-28T08:03:52;103006.81;;;2.30;64.75
19096;BME280;9680;52.520;13.332;2023-02-28T08:06:22;103000.19;;;2.37;63.70
19096;BME280;9680;52.520;13.332;2023-02-28T08:08:51;102995.31;;;2.45;63.14
19096;BME280;9680;52.520;13.332;2023-02-28T08:11:18;103000.75;;;2.54;62.16
19096;BME280;9680;52.520;13.332;2023-02-28T08:13:45;102996.75;;;2.64;61.44
19096;BME280;9680;52.520;13.332;2023-02-28T08:16:13;102993.59;;;2.73;60.67
19096;BME280;9680;52.520;13.332;2023-02-28T08:18:42;102994.78;;;2.84;60.23
19096;BME280;9680;52.520;13.332;2023-02-28T08:21:10;102999.28;;;2.90;57.76
19096;BME280;9680;52.520;13.332;2023-02-28T08:23:37;102991.75;;;2.98;57.60
19096;BME280;9680;52.520;13.332;2023-02-28T08:26:05;102986.81;;;3.04;56.41
19096;BME280;9680;52.520;13.332;2023-02-28T08:28:32;102995.63;;;3.12;55.31
19096;BME280;9680;52.520;13.332;2023-02-28T08:30:59;102995.84;;;3.20;55.13
19096;BME280;9680;52.520;13.332;2023-02-28T08:33:27;102992.69;;;3.30;54.98
19096;BME280;9680;52.520;13.332;2023-02-28T08:35:54;102992.16;;;3.41;54.93
19096;BME280;9680;52.520;13.332;2023-02-28T08:38:21;102995.16;;;3.56;54.53
19096;BME280;9680;52.520;13.332;2023-02-28T08:40:48;102994.53;;;3.65;54.09
19096;BME280;9680;52.520;13.332;2023-02-28T08:43:16;102992.13;;;3.71;52.51
19096;BME280;9680;52.520;13.332;2023-02-28T08:45:43;103003.44;;;3.76;52.70
19096;BME280;9680;52.520;13.332;2023-02-28T08:48:09;102997.72;;;3.88;52.64
19096;BME280;9680;52.520;13.332;2023-02-28T08:50:36;102998.91;;;4.01;52.24
19096;BME280;9680;52.520;13.332;2023-02-28T08:53:03;103002.56;;;4.10;51.75
19096;BME280;9680;52.520;13.332;2023-02-28T08:55:29;103008.00;;;4.20;51.09
19096;BME280;9680;52.520;13.332;2023-02-28T08:57:56;102997.81;;;4.27;50.42
19096;BME280;9680;52.520;13.332;2023-02-28T09:00:25;102998.03;;;4.34;50.08
19096;BME280;9680;52.520;13.332;2023-02-28T09:02:51;102991.28;;;4.41;49.66
19096;BME280;9680;52.520;13.332;2023-02-28T09:05:20;102991.53;;;4.52;49.34
19096;BME280;9680;52.520;13.332;2023-02-28T09:07:46;102996.13;;;4.64;49.18
19096;BME280;9680;52.520;13.332;2023-02-28T09:10:13;102999.78;;;4.74;48.93
19096;BME280;9680;52.520;13.332;2023-02-28T09:12:40;102998.22;;;4.80;48.08
19096;BME280;9680;52.520;13.332;2023-02-28T09:15:07;102995.53;;;4.76;46.79
19096;BME280;9680;52.520;13.332;2023-02-28T09:17:36;102999.97;;;4.81;47.00
19096;BME280;9680;52.520;13.332;2023-02-28T09:20:03;102999.13;;;4.83;45.58
19096;BME280;9680;52.520;13.332;2023-02-28T09:22:30;102991.31;;;4.81;45.79
19096;BME280;9680;52.520;13.332;2023-02-28T09:24:57;102997.50;;;4.88;46.23
19096;BME280;9680;52.520;13.332;2023-02-28T09:27:25;102989.19;;;5.01;46.34
19096;BME280;9680;52.520;13.332;2023-02-28T09:29:56;102989.41;;;5.12;46.11
19096;BME280;9680;52.520;13.332;2023-02-28T09:32:23;102984.25;;;5.12;43.03
19096;BME280;9680;52.520;13.332;2023-02-28T09:34:51;102995.44;;;5.11;44.87
19096;BME280;9680;52.520;13.332;2023-02-28T09:37:18;102993.75;;;5.15;44.57
19096;BME280;9680;52.520;13.332;2023-02-28T09:39:45;103001.69;;;5.22;44.63
19096;BME280;9680;52.520;13.332;2023-02-28T09:42:18;102994.84;;;5.24;44.32
19096;BME280;9680;52.520;13.332;2023-02-28T09:44:50;102989.00;;;5.33;44.40
19096;BME280;9680;52.520;13.332;2023-02-28T09:47:25;102990.69;;;5.33;43.62
19096;BME280;9680;52.520;13.332;2023-02-28T09:49:57;102995.97;;;5.37;43.77
19096;BME280;9680;52.520;13.332;2023-02-28T09:52:29;103003.84;;;5.44;43.99
19096;BME280;9680;52.520;13.332;2023-02-28T09:55:04;103002.22;;;5.49;43.69
19096;BME280;9680;52.520;13.332;2023-02-28T09:57:44;102998.75;;;5.48;43.26
19096;BME280;9680;52.520;13.332;2023-02-28T10:00:15;103003.00;;;5.45;43.27
19096;BME280;9680;52.520;13.332;2023-02-28T10:03:04;102997.91;;;5.49;43.27
19096;BME280;9680;52.520;13.332;2023-02-28T10:05:38;102992.78;;;5.51;42.78
19096;BME280;9680;52.520;13.332;2023-02-28T10:08:12;102995.31;;;5.49;42.82
19096;BME280;9680;52.520;13.332;2023-02-28T10:10:42;103001.50;;;5.58;43.18
19096;BME280;9680;52.520;13.332;2023-02-28T10:13:20;102990.59;;;5.73;43.10
19096;BME280;9680;52.520;13.332;2023-02-28T10:15:52;102992.53;;;5.85;43.18
19096;BME280;9680;52.520;13.332;2023-02-28T10:18:25;102999.50;;;5.90;41.64
19096;BME280;9680;52.520;13.332;2023-02-28T10:20:55;102988.84;;;5.72;41.22
19096;BME280;9680;52.520;13.332;2023-02-28T10:23:25;102988.16;;;5.80;41.98
19096;BME280;9680;52.520;13.332;2023-02-28T10:25:57;102993.44;;;5.87;41.34
19096;BME280;9680;52.520;13.332;2023-02-28T10:28:49;102988.25;;;5.87;41.22
19096;BME280;9680;52.520;13.332;2023-02-28T10:31:19;102988.16;;;5.82;40.64
19096;BME280;9680;52.520;13.332;2023-02-28T10:33:47;102991.41;;;5.70;40.40
19096;BME280;9680;52.520;13.332;2023-02-28T10:36:17;102999.91;;;5.64;40.63
19096;BME280;9680;52.520;13.332;2023-02-28T10:38:46;102997.38;;;5.66;41.26
19096;BME280;9680;52.520;13.332;2023-02-28T10:41:15;102992.44;;;5.80;41.58
19096;BME280;9680;52.520;13.332;2023-02-28T10:43:43;102991.88;;;5.96;41.73
19096;BME280;9680;52.520;13.332;2023-02-28T10:46:14;102997.31;;;6.10;40.35
19096;BME280;9680;52.520;13.332;2023-02-28T10:49:01;102986.53;;;5.86;40.45
19096;BME280;9680;52.520;13.332;2023-02-28T10:51:37;102989.13;;;5.87;40.23
19096;BME280;9680;52.520;13.332;2023-02-28T10:54:05;102983.00;;;5.82;39.88
19096;BME280;9680;52.520;13.332;2023-02-28T10:56:32;102988.09;;;5.77;40.39
19096;BME280;9680;52.520;13.332;2023-02-28T10:59:01;102978.50;;;5.70;40.07
19096;BME280;9680;52.520;13.332;2023-02-28T11:01:38;102979.34;;;5.69;40.48
19096;BME280;9680;52.520;13.332;2023-02-28T11:04:17;102970.03;;;5.80;40.48
19096;BME280;9680;52.520;13.332;2023-02-28T11:06:56;102965.81;;;5.86;40.45
19096;BME280;9680;52.520;13.332;2023-02-28T11:09:27;102966.91;;;5.98;40.41
19096;BME280;9680;52.520;13.332;2023-02-28T11:11:56;102959.13;;;5.97;40.03
19096;BME280;9680;52.520;13.332;2023-02-28T11:14:25;102960.09;;;6.01;39.87
19096;BME280;9680;52.520;13.332;2023-02-28T11:16:54;102959.81;;;5.88;39.76
19096;BME280;9680;52.520;13.332;2023-02-28T11:19:25;102953.22;;;6.03;40.73
19096;BME280;9680;52.520;13.332;2023-02-28T11:21:56;102950.81;;;6.15;40.02
19096;BME280;9680;52.520;13.332;2023-02-28T11:24:27;102949.03;;;6.11;39.70
19096;BME280;9680;52.520;13.332;2023-02-28T11:26:55;102945.50;;;6.07;40.01
19096;BME280;9680;52.520;13.332;2023-02-28T11:29:24;102950.63;;;6.04;39.89
19096;BME280;9680;52.520;13.332;2023-02-28T11:32:04;102937.88;;;6.17;40.29
19096;BME280;9680;52.520;13.332;2023-02-28T11:34:32;102947.66;;;6.33;40.46
19096;BME280;9680;52.520;13.332;2023-02-28T11:37:00;102941.00;;;6.51;40.63
19096;BME280;9680;52.520;13.332;2023-02-28T11:39:30;102943.78;;;6.65;40.83
19096;BME280;9680;52.520;13.332;2023-02-28T11:45:16;102939.75;;;6.25;39.87
19096;BME280;9680;52.520;13.332;2023-02-28T11:47:48;102944.31;;;6.40;40.27
19096;BME280;9680;52.520;13.332;2023-02-28T11:50:36;102955.59;;;6.47;39.11
19096;BME280;9680;52.520;13.332;2023-02-28T11:53:14;102936.25;;;6.22;38.97
19096;BME280;9680;52.520;13.332;2023-02-28T11:55:45;102943.00;;;6.14;39.05
19096;BME280;9680;52.520;13.332;2023-02-28T11:58:32;102944.72;;;6.11;39.43
19096;BME280;9680;52.520;13.332;2023-02-28T12:01:15;102947.44;;;6.21;39.86
19096;BME280;9680;52.520;13.332;2023-02-28T12:03:51;102941.50;;;6.28;39.91
19096;BME280;9680;52.520;13.332;2023-02-28T12:06:25;102939.13;;;6.42;40.29
19096;BME280;9680;52.520;13.332;2023-02-28T12:09:23;102939.38;;;6.59;40.45
19096;BME280;9680;52.520;13.332;2023-02-28T12:11:56;102936.16;;;6.76;40.50
19096;BME280;9680;52.520;13.332;2023-02-28T12:14:49;102938.81;;;6.82;39.63
19096;BME280;9680;52.520;13.332;2023-02-28T12:17:29;102939.66;;;6.79;39.82
19096;BME280;9680;52.520;13.332;2023-02-28T12:20:06;102935.78;;;6.48;37.79
19096;BME280;9680;52.520;13.332;2023-02-28T12:22:42;102931.00;;;6.19;38.75
19096;BME280;9680;52.520;13.332;2023-02-28T12:25:43;102932.63;;;6.10;39.00
19096;BME280;9680;52.520;13.332;2023-02-28T12:28:16;102931.72;;;6.08;39.63
19096;BME280;9680;52.520;13.332;2023-02-28T12:30:50;102928.28;;;6.09;39.33
19096;BME280;9680;52.520;13.332;2023-02-28T12:33:23;102924.03;;;6.13;39.39
19096;BME280;9680;52.520;13.332;2023-02-28T12:35:54;102913.84;;;6.22;39.40
19096;BME280;9680;52.520;13.332;2023-02-28T12:38:25;102911.63;;;6.50;39.86
19096;BME280;9680;52.520;13.332;2023-02-28T12:40:59;102904.13;;;6.69;39.85
19096;BME280;9680;52.520;13.332;2023-02-28T12:43:30;102899.94;;;6.82;39.59
19096;BME280;9680;52.520;13.332;2023-02-28T12:46:07;102900.56;;;6.62;39.17
19096;BME280;9680;52.520;13.332;2023-02-28T12:48:41;102891.84;;;6.55;39.75
19096;BME280;9680;52.520;13.332;2023-02-28T12:51:10;102884.19;;;6.63;40.05
19096;BME280;9680;52.520;13.332;2023-02-28T12:53:57;102876.44;;;6.66;40.33
19096;BME280;9680;52.520;13.332;2023-02-28T12:56:35;102873.91;;;6.68;40.33
19096;BME280;9680;52.520;13.332;2023-02-28T12:59:14;102875.63;;;6.70;40.20
19096;BME280;9680;52.520;13.332;2023-02-28T13:02:00;102864.09;;;6.45;39.72
19096;BME280;9680;52.520;13.332;2023-02-28T13:04:53;102855.31;;;6.32;39.02
19096;BME280;9680;52.520;13.332;2023-02-28T13:07:37;102854.31;;;6.24;39.84
19096;BME280;9680;52.520;13.332;2023-02-28T13:10:10;102850.16;;;6.35;40.37
19096;BME280;9680;52.520;13.332;2023-02-28T13:12:50;102850.97;;;6.31;39.94
19096;BME280;9680;52.520;13.332;2023-02-28T13:15:20;102850.00;;;6.24;39.80
19096;BME280;9680;52.520;13.332;2023-02-28T13:17:51;102855.09;;;6.18;40.03
19096;BME280;9680;52.520;13.332;2023-02-28T13:20:21;102849.94;;;6.18;39.84